Latest Weather Observations for Mount William

IDV60801

Issued at 3:32 pm EST Tuesday 26 September 2017 (issued every 30 minutes, with the page automatically refreshed every 10 minutes)

About weather observations | Map of weather stations | Latest weather observations for VIC | Other Formats
Station Details ID: 079103 Name: MOUNT WILLIAM Lat: -37.30 Lon: 142.60 Height: 1150.0 m
Data from the previous 72 hours. | See also: Recent months at Mount William
Date/Time
EST
Temp
°C
App
Temp
°C
Dew
Point
°C
Rel
Hum
%
Delta-T
°C
Wind Press
QNH
hPa
Press
MSL
hPa
Rain since
9am
mm
Dir  Spd
km/h
Gust
km/h
Spd
kts
Gust
kts
26/03:30pm 9.4 6.0 6.1 80 1.6 NNE 13 19 7 10 - - 0.0
26/03:00pm 8.4 5.6 5.3 81 1.5 NNE 9 15 5 8 - - 0.0
26/02:30pm 8.3 6.5 5.2 81 1.5 N 4 7 2 4 - - 0.0
26/02:00pm 9.5 7.7 5.5 76 1.9 NW 4 11 2 6 - - 0.0
26/01:30pm 8.3 5.6 3.8 73 2.1 W 7 13 4 7 - - 0.0
26/01:00pm 8.2 5.9 4.8 79 1.6 N 6 13 3 7 - - 0.0
26/12:30pm 6.5 3.8 2.9 78 1.6 NNW 6 13 3 7 - - 0.0
26/12:00pm 6.6 4.4 3.6 81 1.4 NNW 4 9 2 5 - - 0.0
26/11:30am 5.8 3.2 3.3 84 1.1 WNW 6 11 3 6 - - 0.0
26/11:00am 5.2 2.8 4.5 95 0.3 NW 6 13 3 7 - - 0.0
26/10:30am 3.7 1.9 3.3 97 0.2 E 2 6 1 3 - - 0.0
26/10:00am 3.4 1.6 3.3 99 0.0 NE 2 6 1 3 - - 0.0
26/09:30am 2.7 0.0 2.6 99 0.0 NE 6 11 3 6 - - 0.0
26/09:00am 2.2 -0.6 2.1 99 0.0 E 6 7 3 4 - - 0.6
26/08:30am 1.6 -1.3 1.5 99 0.0 ENE 6 9 3 5 - - 0.6
26/08:00am 1.5 -1.4 1.4 99 0.0 ENE 6 9 3 5 - - 0.4
26/07:30am 1.4 -1.7 1.1 98 0.1 E 7 13 4 7 - - 0.2
26/07:00am -0.3 -4.1 -0.4 99 0.0 SSE 9 13 5 7 - - 0.2
26/06:30am -0.6 -2.7 -0.9 98 0.1 CALM 0 0 0 0 - - 0.2
26/06:00am -0.8 -3.0 -1.2 97 0.1 CALM 0 0 0 0 - - 0.2
26/05:30am -0.6 -2.7 -0.9 98 0.1 CALM 0 0 0 0 - - 0.2
26/05:00am -0.7 -2.8 -0.8 99 0.0 CALM 0 0 0 0 - - 0.2
26/04:30am -0.6 -2.7 -0.7 99 0.0 CALM 0 0 0 0 - - 0.2
26/04:00am -0.4 -2.5 -0.5 99 0.0 CALM 0 0 0 0 - - 0.2
26/03:30am -0.2 -2.2 -0.3 99 0.0 CALM 0 0 0 0 - - 0.2
26/03:00am -0.4 -5.7 -0.5 99 0.0 - 17 24 9 13 - - 0.2
26/02:30am -0.2 -6.8 -0.3 99 0.0 SW 24 32 13 17 - - 0.2
26/02:00am -0.2 -7.9 -0.3 99 0.0 SW 30 35 16 19 - - 0.2
26/01:30am -0.1 -6.7 -0.2 99 0.0 WSW 24 35 13 19 - - 0.2
26/01:00am 0.1 -6.8 0.0 99 0.0 SW 26 35 14 19 - - 0.2
26/12:30am 0.1 -6.4 0.0 99 0.0 WSW 24 35 13 19 - - 0.2
26/12:00am 0.4 -5.7 0.3 99 0.0 WSW 22 33 12 18 - - 0.2
 
Date/Time
EST
Temp
°C
App
Temp
°C
Dew
Point
°C
Rel
Hum
%
Delta-T
°C
Wind Press
QNH
hPa
Press
MSL
hPa
Rain since
9am
mm
Dir  Spd
km/h
Gust
km/h
Spd
kts
Gust
kts
25/11:30pm 0.5 -5.0 0.4 99 0.0 WSW 19 30 10 16 - - 0.2
25/11:00pm 0.3 -4.9 0.2 99 0.0 WSW 17 26 9 14 - - 0.2
25/10:30pm 0.6 -4.2 0.5 99 0.0 WSW 15 28 8 15 - - 0.2
25/10:00pm 0.9 -3.1 0.8 99 0.0 WSW 11 24 6 13 - - 0.2
25/09:30pm 1.2 -3.5 1.1 99 0.0 SW 15 26 8 14 - - 0.2
25/09:00pm 1.5 -3.9 1.4 99 0.0 SW 19 26 10 14 - - 0.2
25/08:30pm 1.8 -2.4 1.7 99 0.0 WSW 13 26 7 14 - - 0.2
25/08:00pm 2.2 -1.9 2.1 99 0.0 WSW 13 26 7 14 - - 0.2
25/07:30pm 2.5 -1.6 2.4 99 0.0 WSW 13 24 7 13 - - 0.2
25/07:00pm 2.7 -1.3 2.6 99 0.0 WSW 13 24 7 13 - - 0.2
25/06:30pm 3.0 -1.7 2.9 99 0.0 W 17 28 9 15 - - 0.2
25/06:00pm 3.6 -1.0 3.5 99 0.0 W 17 33 9 18 - - 0.2
25/05:30pm 4.0 0.6 3.9 99 0.0 W 11 20 6 11 - - 0.2
25/05:00pm 4.7 1.0 4.3 97 0.2 W 13 26 7 14 - - 0.2
25/04:30pm 4.7 1.4 4.6 99 0.0 W 11 30 6 16 - - 0.2
25/04:00pm 5.1 1.5 5.0 99 0.0 W 13 30 7 16 - - 0.2
25/03:30pm 4.7 1.0 4.7 100 0.0 WSW 13 24 7 13 - - 0.2
25/03:00pm 5.1 1.1 5.1 100 0.0 WSW 15 24 8 13 - - 0.2
25/02:30pm 4.6 0.5 4.6 100 0.0 WNW 15 26 8 14 - - 0.2
25/02:00pm 4.0 -0.5 4.0 100 0.0 WSW 17 32 9 17 - - 0.2
25/01:30pm 4.9 1.3 4.9 100 0.0 W 13 26 7 14 - - 0.0
25/01:00pm 4.5 1.2 4.5 100 0.0 W 11 30 6 16 - - 0.0
25/12:30pm 4.9 0.5 4.9 100 0.0 W 17 41 9 22 - - 0.0
25/12:00pm 4.2 -1.3 4.2 100 0.0 WSW 22 35 12 19 - - 0.0
25/11:30am 4.1 0.3 4.1 100 0.0 W 13 30 7 16 - - 0.0
25/11:00am 3.8 -0.8 3.8 100 0.0 W 17 30 9 16 - - 0.0
25/10:30am 3.6 -1.4 3.6 100 0.0 WSW 19 41 10 22 - - 0.0
25/10:00am 3.5 0.0 3.5 100 0.0 WNW 11 24 6 13 - - 0.0
25/09:30am 3.0 -2.1 3.0 100 0.0 WSW 19 39 10 21 - - 0.0
25/09:00am 3.0 -1.7 3.0 100 0.0 WSW 17 37 9 20 - - 10.6
25/08:30am 2.6 -2.8 2.6 100 0.0 WSW 20 39 11 21 - - 10.6
25/08:00am 2.7 -2.7 2.7 100 0.0 WSW 20 46 11 25 - - 10.6
25/07:30am 3.0 -2.1 3.0 100 0.0 WSW 19 41 10 22 - - 10.4
25/07:00am 3.0 -1.3 3.0 100 0.0 WSW 15 35 8 19 - - 10.4
25/06:30am 2.8 -2.3 2.8 100 0.0 WSW 19 32 10 17 - - 10.2
25/06:00am 3.0 -1.7 3.0 100 0.0 W 17 39 9 21 - - 10.2
25/05:30am 3.0 -1.7 3.0 100 0.0 WSW 17 39 9 21 - - 9.8
25/05:00am 3.0 -2.1 3.0 100 0.0 W 19 50 10 27 - - 9.8
25/04:30am 3.2 -1.9 3.2 100 0.0 WSW 19 39 10 21 - - 9.8
25/04:00am 3.4 -0.5 3.4 100 0.0 WSW 13 33 7 18 - - 9.8
25/03:30am 3.4 -1.3 3.4 100 0.0 WSW 17 33 9 18 - - 9.8
25/03:00am 3.4 -1.6 3.4 100 0.0 W 19 39 10 21 - - 9.8
25/02:30am 3.6 -1.0 3.6 100 0.0 W 17 39 9 21 - - 9.8
25/02:00am 3.7 -1.5 3.7 100 0.0 W 20 52 11 28 - - 9.8
25/01:54am 3.7 -1.9 3.7 100 0.0 W 22 52 12 28 - - 9.8
25/01:30am 3.8 -1.4 3.8 100 0.0 WSW 20 44 11 24 - - 9.8
25/01:16am 3.7 -3.0 3.7 100 0.0 WSW 28 52 15 28 - - 9.8
25/01:00am 3.9 -1.6 3.9 100 0.0 W 22 44 12 24 - - 9.8
25/12:30am 3.9 -2.0 3.9 100 0.0 WSW 24 44 13 24 - - 9.6
25/12:00am 3.9 -4.5 3.9 100 0.0 WSW 37 61 20 33 - - 9.6
 
Date/Time
EST
Temp
°C
App
Temp
°C
Dew
Point
°C
Rel
Hum
%
Delta-T
°C
Wind Press
QNH
hPa
Press
MSL
hPa
Rain since
9am
mm
Dir  Spd
km/h
Gust
km/h
Spd
kts
Gust
kts
24/11:30pm 4.1 -5.6 4.1 100 0.0 WSW 44 72 24 39 - - 9.6
24/11:00pm 3.9 -6.6 3.9 100 0.0 WSW 48 72 26 39 - - 9.4
24/10:30pm 4.0 -5.5 4.0 100 0.0 W 43 65 23 35 - - 9.2
24/10:00pm 3.8 -5.3 3.8 100 0.0 W 41 70 22 38 - - 9.0
24/09:30pm 4.2 -4.9 4.2 100 0.0 W 41 67 22 36 - - 8.6
24/09:00pm 4.3 -4.4 4.3 100 0.0 W 39 65 21 35 - - 8.6
24/08:30pm 4.5 -4.5 4.5 100 0.0 W 41 67 22 36 - - 8.6
24/08:00pm 4.6 -2.7 4.6 100 0.0 W 32 59 17 32 - - 8.2
24/07:30pm 4.7 -5.6 4.7 100 0.0 W 48 80 26 43 - - 8.2
24/07:16pm 4.7 -4.8 4.7 100 0.0 W 44 78 24 42 - - 8.2
24/07:00pm 4.8 -3.0 4.8 100 0.0 W 35 63 19 34 - - 8.2
24/06:30pm 4.9 -5.0 4.9 100 0.0 W 46 80 25 43 - - 8.2
24/06:00pm 5.0 -5.2 5.0 100 0.0 W 48 78 26 42 - - 7.4
24/05:30pm 4.8 -4.5 4.8 100 0.0 W 43 74 23 40 - - 5.0
24/05:00pm 4.7 -6.4 4.7 100 0.0 W 52 91 28 49 - - 4.4
24/04:30pm 4.5 -6.2 4.5 100 0.0 WNW 50 72 27 39 - - 4.4
24/04:00pm 4.6 -5.7 4.6 100 0.0 W 48 78 26 42 - - 4.4
24/03:30pm 4.7 -5.6 4.7 100 0.0 WNW 48 82 26 44 - - 2.6
24/03:00pm 4.8 -4.7 4.7 99 0.0 WNW 44 65 24 35 - - 2.2
24/02:30pm 4.9 -4.4 4.8 99 0.0 WNW 43 63 23 34 - - 1.6
24/02:00pm 5.2 -5.0 5.1 99 0.0 WNW 48 76 26 41 - - 1.4
24/01:30pm 5.3 -4.1 5.3 100 0.0 WNW 44 67 24 36 - - 1.4
24/01:00pm 5.4 -4.0 5.4 100 0.0 WNW 44 72 24 39 - - 1.4
24/12:30pm 4.8 -5.9 4.8 100 0.0 W 50 74 27 40 - - 1.4
24/12:00pm 4.7 -3.9 4.7 100 0.0 W 39 57 21 31 - - 1.0
24/11:30am 4.7 -4.8 4.7 100 0.0 W 44 63 24 34 - - 1.0
24/11:00am 4.2 -5.8 4.2 100 0.0 W 46 74 25 40 - - 1.0
24/10:30am 4.1 -5.0 4.1 100 0.0 W 41 65 22 35 - - 1.0
24/10:00am 4.1 -5.4 4.1 100 0.0 W 43 65 23 35 - - 1.0
24/09:30am 3.5 -5.3 3.5 100 0.0 W 39 69 21 37 - - 0.8
24/09:00am 3.4 -6.2 3.4 100 0.0 W 43 76 23 41 - - 5.4
24/08:30am 3.3 -6.9 3.3 100 0.0 W 46 69 25 37 - - 5.4
24/08:00am 3.3 -5.6 3.3 100 0.0 W 39 72 21 39 - - 5.0
24/07:30am 3.3 -6.9 3.3 100 0.0 W 46 69 25 37 - - 5.0
24/07:00am 3.0 -6.9 3.0 100 0.0 W 44 65 24 35 - - 5.0
24/06:30am 2.3 -6.4 2.3 100 0.0 W 37 59 20 32 - - 5.0
24/06:00am 2.4 -4.5 2.4 100 0.0 WSW 28 54 15 29 - - 5.0
24/05:59am 2.4 -4.5 2.4 100 0.0 WSW 28 54 15 29 - - 5.0
24/05:51am 2.5 -5.7 2.5 100 0.0 WSW 35 61 19 33 - - 5.0
24/05:30am 3.3 -6.3 3.3 100 0.0 W 43 63 23 34 - - 4.2
24/05:00am 3.8 -4.2 3.8 100 0.0 W 35 59 19 32 - - 3.2
24/04:30am 3.9 -4.1 3.9 100 0.0 W 35 59 19 32 - - 3.0
24/04:00am 3.9 -5.8 3.9 100 0.0 WNW 44 82 24 44 - - 2.8
24/03:30am 3.8 -6.3 3.8 100 0.0 WNW 46 67 25 36 - - 2.2
24/03:06am 4.5 -3.7 4.5 100 0.0 W 37 57 20 31 - - 1.8
24/03:00am 4.4 -3.9 4.4 100 0.0 W 37 54 20 29 - - 1.8
24/02:30am 4.4 -5.0 4.4 100 0.0 W 43 80 23 43 - - 1.8
24/02:24am 4.2 -5.4 4.2 100 0.0 W 44 80 24 43 - - 1.8
24/02:00am 4.8 -3.8 4.8 100 0.0 W 39 59 21 32 - - 1.4
24/01:38am 4.9 -3.3 4.9 100 0.0 W 37 63 20 34 - - 1.0
24/01:30am 5.0 -2.4 5.0 100 0.0 W 33 46 18 25 - - 0.8
24/01:00am 4.7 -2.8 4.6 99 0.0 W 33 57 18 31 - - 0.0
24/12:30am 4.5 -3.0 4.4 99 0.0 W 33 56 18 30 - - 0.0
24/12:02am 4.5 -3.4 4.4 99 0.0 W 35 54 19 29 - - 0.0
24/12:00am 4.5 -3.8 4.4 99 0.0 W 37 54 20 29 - - 0.0
 
Date/Time
EST
Temp
°C
App
Temp
°C
Dew
Point
°C
Rel
Hum
%
Delta-T
°C
Wind Press
QNH
hPa
Press
MSL
hPa
Rain since
9am
mm
Dir  Spd
km/h
Gust
km/h
Spd
kts
Gust
kts
23/11:30pm 4.6 -3.6 4.5 99 0.0 W 37 61 20 33 - - 0.0
23/11:01pm 4.7 -3.2 4.6 99 0.0 W 35 54 19 29 - - 0.0
23/11:00pm 4.7 -3.2 4.6 99 0.0 W 35 54 19 29 - - 0.0
23/10:30pm 4.9 -3.3 4.8 99 0.0 W 37 65 20 35 - - 0.0
23/10:00pm 5.2 -2.6 5.1 99 0.0 W 35 70 19 38 - - 0.0
23/09:30pm 5.5 -2.9 5.4 99 0.0 W 39 72 21 39 - - 0.0
23/09:27pm 5.5 -2.9 5.4 99 0.0 W 39 72 21 39 - - 0.0
23/09:00pm 5.7 -2.1 5.1 96 0.3 W 35 54 19 29 - - 0.0
23/08:30pm 6.1 -1.9 5.8 98 0.1 W 37 65 20 35 - - 0.0
23/08:00pm 6.6 -0.9 6.5 99 0.0 W 35 61 19 33 - - 0.0
23/07:30pm 6.9 -1.0 6.3 96 0.3 W 37 69 20 37 - - 0.0
23/07:00pm 7.3 -0.9 6.7 96 0.3 W 39 67 21 36 - - 0.0
23/06:30pm 7.8 0.4 6.7 93 0.5 W 35 69 19 37 - - 0.0
23/06:00pm 8.3 -0.9 8.2 99 0.1 W 46 69 25 37 - - 0.0
23/05:30pm 9.6 0.9 8.4 92 0.6 W 44 72 24 39 - - 0.0
23/05:00pm 10.7 3.9 9.1 90 0.8 W 35 63 19 34 - - 0.0
23/04:30pm 12.4 3.7 7.9 74 2.4 W 43 69 23 37 - - 0.0
23/04:00pm 13.3 6.9 8.6 73 2.5 W 32 57 17 31 - - 0.0

Other Formats:

Comma delimited format used in spreadsheet applications
http://www.bom.gov.au/fwo/IDV60801/IDV60801.94833.axf

JavaScript Object Notation format (JSON) in row-major order
http://www.bom.gov.au/fwo/IDV60801/IDV60801.94833.json